Lake Forest, IL (60045)

10:28 PM CDT en Octubre 24, 2014 (GMT -0500)
King Muir | Change Station
CLOSE
Current Station
Estación meteorológica personal
Location: Lake Forest, IL
Altura: 712 ft
Estaciones meteorológicas cercanas

Alt 712 ft 42.25 °N, 87.87 °W | Updated 25 seconds ago

Nublado
Nublado
57.9 ° F
Sensación térmica 57.9 ° F
N
1.0
Viento Variable Viento desde Sur
Gusts 0.0 mph

Hoy
Alta -- | Baja -- ° F
--% Posibilidad de precipitaciones
Ayer
Alta -- | Baja -- ° F
Precip. -- pul
7:14 AM 5:55 PM
Luna nueva, 2% visible
Presión 29.96 pul
Visibilidad 10.0 Millas
Nubes Nublado 4400 ft
Punto de rocío 50 ° F
Humedad 76%
Precipitaciones 0.00 pul
Espesor de la nieve No disponible.
UV 0 de una escala de 12
Polen 1.10 de una escala de 12
Calidad del aire No disponible.
Flu Activity No disponible.
METAR KPWK 250252Z AUTO 24006KT 10SM OVC044 17/08 A2996 RMK AO2 RAB06E18 SLP144 P0000 60000 T01670078 55002

More Conditions Fewer Conditions

Presión 29.96 pul
Visibilidad 10.0 Millas
Nubes Nublado 4400 ft
Punto de rocío 50 ° F
Humedad 76%
Precipitaciones 0.00 pul
Espesor de la nieve No disponible.
UV 0 de una escala de 12
Polen 1.10 de una escala de 12
Calidad del aire No disponible.
Flu Activity No disponible.
METAR KPWK 250252Z AUTO 24006KT 10SM OVC044 17/08 A2996 RMK AO2 RAB06E18 SLP144 P0000 60000 T01670078 55002

More Conditions Fewer Conditions

10-Day Weather Forecast

Almanac

Astronomía

Oct. 24, 2014 Salida Puesta
Hora real 7:14 AM CDT 5:55 PM CDT
Crepúsculo civil 6:46 AM CDT 6:24 PM CDT
Crepúsculo náutico 6:13 AM CDT 6:57 PM CDT
Crepúsculo astronómico 5:40 AM CDT 7:29 PM CDT
Luna 7:54 AM CDT (10/24) 6:34 PM CDT (10/24)
Horas de luz 11h 38m
Horas de luz
10h 41m
Tomorrow will be 2m 38s shorter.
Luna nueva, 2% of the Moon is Illuminated
Hoy
Luna nueva
Oct 30
Cuarto creciente
Nov 6
Luna llena
Nov 14
Cuarto menguante
Nov 22
Nueva

Extremos de hoy

Máximos del estado Bajos del estado

Community

WunderPhotos

Upload Photos

1,764,769 ¡fotos cargadas!

Nearby

Grosos de nieve

Estación Profundido Altura
No tenemos constancia de nieve nueva.

Actividad de terremotos

Ciudad Distance Mag. Tiempo y dato
No hay informes recientes de la actividad sísmica.
Magnitud mínima muestra es 2,5.

Temperaturas de aguas costeras

Lugar Temperatura
Sin partes meteorológicos de las estaciones

Estaciones meteorológicas cercanas